sensor_id;sensor_type;location;lat;lon;timestamp;P1;durP1;ratioP1;P2;durP2;ratioP2
23078;SDS011;11707;50.830;4.364;2023-05-14T00:02:23;93.68;;;55.90;;
23078;SDS011;11707;50.830;4.364;2023-05-14T00:04:49;84.22;;;53.80;;
23078;SDS011;11707;50.830;4.364;2023-05-14T00:07:14;87.85;;;55.05;;
23078;SDS011;11707;50.830;4.364;2023-05-14T00:09:40;82.95;;;54.88;;
23078;SDS011;11707;50.830;4.364;2023-05-14T00:12:06;86.45;;;56.33;;
23078;SDS011;11707;50.830;4.364;2023-05-14T00:14:32;86.65;;;56.08;;
23078;SDS011;11707;50.830;4.364;2023-05-14T00:16:58;84.78;;;55.75;;
23078;SDS011;11707;50.830;4.364;2023-05-14T00:19:24;89.88;;;52.15;;
23078;SDS011;11707;50.830;4.364;2023-05-14T00:21:50;96.28;;;57.28;;
23078;SDS011;11707;50.830;4.364;2023-05-14T00:24:16;89.10;;;55.38;;
23078;SDS011;11707;50.830;4.364;2023-05-14T00:26:44;86.80;;;55.53;;
23078;SDS011;11707;50.830;4.364;2023-05-14T00:29:10;93.72;;;57.75;;
23078;SDS011;11707;50.830;4.364;2023-05-14T00:31:36;92.15;;;55.95;;
23078;SDS011;11707;50.830;4.364;2023-05-14T00:34:01;96.30;;;57.00;;
23078;SDS011;11707;50.830;4.364;2023-05-14T00:36:27;100.10;;;57.22;;
23078;SDS011;11707;50.830;4.364;2023-05-14T00:38:53;105.40;;;58.88;;
23078;SDS011;11707;50.830;4.364;2023-05-14T00:41:19;95.53;;;60.42;;
23078;SDS011;11707;50.830;4.364;2023-05-14T00:43:45;100.45;;;58.15;;
23078;SDS011;11707;50.830;4.364;2023-05-14T00:46:11;95.80;;;57.53;;
23078;SDS011;11707;50.830;4.364;2023-05-14T00:48:38;98.63;;;59.90;;
23078;SDS011;11707;50.830;4.364;2023-05-14T00:51:07;87.57;;;56.30;;
23078;SDS011;11707;50.830;4.364;2023-05-14T00:53:33;96.45;;;57.38;;
23078;SDS011;11707;50.830;4.364;2023-05-14T00:55:59;95.97;;;55.92;;
23078;SDS011;11707;50.830;4.364;2023-05-14T00:58:27;99.85;;;59.78;;
23078;SDS011;11707;50.830;4.364;2023-05-14T01:00:53;109.38;;;61.88;;
23078;SDS011;11707;50.830;4.364;2023-05-14T01:03:19;118.78;;;59.83;;
23078;SDS011;11707;50.830;4.364;2023-05-14T01:06:00;113.57;;;59.63;;
23078;SDS011;11707;50.830;4.364;2023-05-14T01:11:31;107.22;;;61.15;;
23078;SDS011;11707;50.830;4.364;2023-05-14T01:19:48;106.72;;;60.47;;
23078;SDS011;11707;50.830;4.364;2023-05-14T01:22:16;112.57;;;60.70;;
23078;SDS011;11707;50.830;4.364;2023-05-14T01:24:41;108.32;;;61.33;;
23078;SDS011;11707;50.830;4.364;2023-05-14T01:27:17;103.80;;;61.47;;
23078;SDS011;11707;50.830;4.364;2023-05-14T01:29:58;109.35;;;59.92;;
23078;SDS011;11707;50.830;4.364;2023-05-14T01:32:39;116.07;;;60.88;;
23078;SDS011;11707;50.830;4.364;2023-05-14T01:35:07;114.57;;;62.08;;
23078;SDS011;11707;50.830;4.364;2023-05-14T01:37:34;111.05;;;61.47;;
23078;SDS011;11707;50.830;4.364;2023-05-14T01:40:01;120.97;;;65.70;;
23078;SDS011;11707;50.830;4.364;2023-05-14T01:42:27;121.15;;;62.03;;
23078;SDS011;11707;50.830;4.364;2023-05-14T01:44:56;118.45;;;63.03;;
23078;SDS011;11707;50.830;4.364;2023-05-14T01:47:22;115.15;;;62.72;;
23078;SDS011;11707;50.830;4.364;2023-05-14T01:49:48;117.32;;;64.07;;
23078;SDS011;11707;50.830;4.364;2023-05-14T01:52:14;108.90;;;59.50;;
23078;SDS011;11707;50.830;4.364;2023-05-14T01:54:39;112.45;;;60.90;;
23078;SDS011;11707;50.830;4.364;2023-05-14T01:57:05;121.90;;;65.57;;
23078;SDS011;11707;50.830;4.364;2023-05-14T01:59:35;112.78;;;60.90;;
23078;SDS011;11707;50.830;4.364;2023-05-14T02:02:01;114.28;;;62.88;;
23078;SDS011;11707;50.830;4.364;2023-05-14T02:04:27;103.65;;;58.92;;
23078;SDS011;11707;50.830;4.364;2023-05-14T02:06:53;115.63;;;61.10;;
23078;SDS011;11707;50.830;4.364;2023-05-14T02:09:19;117.70;;;62.85;;
23078;SDS011;11707;50.830;4.364;2023-05-14T02:11:44;122.57;;;63.13;;
23078;SDS011;11707;50.830;4.364;2023-05-14T02:14:10;118.10;;;62.03;;
23078;SDS011;11707;50.830;4.364;2023-05-14T02:16:36;113.78;;;60.75;;
23078;SDS011;11707;50.830;4.364;2023-05-14T02:19:01;112.50;;;61.95;;
23078;SDS011;11707;50.830;4.364;2023-05-14T02:21:27;111.68;;;58.95;;
23078;SDS011;11707;50.830;4.364;2023-05-14T02:23:52;121.28;;;60.10;;
23078;SDS011;11707;50.830;4.364;2023-05-14T02:26:23;116.03;;;60.45;;
23078;SDS011;11707;50.830;4.364;2023-05-14T02:28:49;119.07;;;60.97;;
23078;SDS011;11707;50.830;4.364;2023-05-14T02:31:14;118.28;;;61.67;;
23078;SDS011;11707;50.830;4.364;2023-05-14T02:33:42;108.53;;;60.38;;
23078;SDS011;11707;50.830;4.364;2023-05-14T02:36:08;119.25;;;62.47;;
23078;SDS011;11707;50.830;4.364;2023-05-14T02:38:34;114.50;;;56.72;;
23078;SDS011;11707;50.830;4.364;2023-05-14T02:41:02;112.32;;;60.78;;
23078;SDS011;11707;50.830;4.364;2023-05-14T02:43:28;116.82;;;58.28;;
23078;SDS011;11707;50.830;4.364;2023-05-14T02:45:53;110.28;;;61.83;;
23078;SDS011;11707;50.830;4.364;2023-05-14T02:48:21;110.75;;;60.72;;
23078;SDS011;11707;50.830;4.364;2023-05-14T02:50:50;105.05;;;62.10;;
23078;SDS011;11707;50.830;4.364;2023-05-14T02:53:16;108.18;;;59.92;;
23078;SDS011;11707;50.830;4.364;2023-05-14T02:55:42;104.90;;;56.60;;
23078;SDS011;11707;50.830;4.364;2023-05-14T02:58:08;115.43;;;60.45;;
23078;SDS011;11707;50.830;4.364;2023-05-14T03:00:34;119.68;;;61.65;;
23078;SDS011;11707;50.830;4.364;2023-05-14T03:03:00;107.60;;;59.33;;
23078;SDS011;11707;50.830;4.364;2023-05-14T03:05:25;107.93;;;59.78;;
23078;SDS011;11707;50.830;4.364;2023-05-14T03:07:51;113.53;;;60.13;;
23078;SDS011;11707;50.830;4.364;2023-05-14T03:10:17;134.63;;;61.83;;
23078;SDS011;11707;50.830;4.364;2023-05-14T03:12:44;113.63;;;60.72;;
23078;SDS011;11707;50.830;4.364;2023-05-14T03:15:09;113.53;;;59.40;;
23078;SDS011;11707;50.830;4.364;2023-05-14T03:17:35;106.88;;;57.55;;
23078;SDS011;11707;50.830;4.364;2023-05-14T03:20:03;102.95;;;58.63;;
23078;SDS011;11707;50.830;4.364;2023-05-14T03:22:29;115.32;;;59.60;;
23078;SDS011;11707;50.830;4.364;2023-05-14T03:24:55;100.35;;;55.72;;
23078;SDS011;11707;50.830;4.364;2023-05-14T03:27:21;106.07;;;59.40;;
23078;SDS011;11707;50.830;4.364;2023-05-14T03:29:47;107.85;;;59.35;;
23078;SDS011;11707;50.830;4.364;2023-05-14T03:32:13;107.05;;;59.30;;
23078;SDS011;11707;50.830;4.364;2023-05-14T03:34:39;111.45;;;59.50;;
23078;SDS011;11707;50.830;4.364;2023-05-14T03:37:05;111.32;;;59.75;;
23078;SDS011;11707;50.830;4.364;2023-05-14T03:39:30;109.35;;;60.92;;
23078;SDS011;11707;50.830;4.364;2023-05-14T03:41:56;106.45;;;56.88;;
23078;SDS011;11707;50.830;4.364;2023-05-14T03:44:23;100.90;;;58.40;;
23078;SDS011;11707;50.830;4.364;2023-05-14T03:46:51;107.03;;;58.13;;
23078;SDS011;11707;50.830;4.364;2023-05-14T03:49:19;107.57;;;59.17;;
23078;SDS011;11707;50.830;4.364;2023-05-14T03:51:45;100.95;;;59.55;;
23078;SDS011;11707;50.830;4.364;2023-05-14T03:54:11;106.97;;;58.45;;
23078;SDS011;11707;50.830;4.364;2023-05-14T03:56:37;104.82;;;58.80;;
23078;SDS011;11707;50.830;4.364;2023-05-14T03:59:02;94.03;;;56.28;;
23078;SDS011;11707;50.830;4.364;2023-05-14T04:01:30;106.53;;;60.28;;
23078;SDS011;11707;50.830;4.364;2023-05-14T04:03:56;106.97;;;57.58;;
23078;SDS011;11707;50.830;4.364;2023-05-14T04:06:22;99.32;;;54.67;;
23078;SDS011;11707;50.830;4.364;2023-05-14T04:08:48;110.32;;;58.38;;
23078;SDS011;11707;50.830;4.364;2023-05-14T04:11:13;107.10;;;60.17;;
23078;SDS011;11707;50.830;4.364;2023-05-14T04:13:39;102.65;;;57.83;;
23078;SDS011;11707;50.830;4.364;2023-05-14T04:16:04;104.03;;;56.50;;
23078;SDS011;11707;50.830;4.364;2023-05-14T04:18:30;100.82;;;57.35;;
23078;SDS011;11707;50.830;4.364;2023-05-14T04:20:59;103.00;;;56.95;;
23078;SDS011;11707;50.830;4.364;2023-05-14T04:23:25;92.65;;;54.88;;
23078;SDS011;11707;50.830;4.364;2023-05-14T04:25:53;101.43;;;56.35;;
23078;SDS011;11707;50.830;4.364;2023-05-14T04:28:19;99.88;;;56.90;;
23078;SDS011;11707;50.830;4.364;2023-05-14T04:30:45;109.93;;;57.22;;
23078;SDS011;11707;50.830;4.364;2023-05-14T04:33:12;100.07;;;56.50;;
23078;SDS011;11707;50.830;4.364;2023-05-14T04:35:37;104.25;;;57.97;;
23078;SDS011;11707;50.830;4.364;2023-05-14T04:38:03;104.93;;;56.70;;
23078;SDS011;11707;50.830;4.364;2023-05-14T04:40:29;96.90;;;54.15;;
23078;SDS011;11707;50.830;4.364;2023-05-14T04:42:55;101.45;;;55.80;;
23078;SDS011;11707;50.830;4.364;2023-05-14T04:45:21;98.60;;;54.63;;
23078;SDS011;11707;50.830;4.364;2023-05-14T04:47:47;89.70;;;52.75;;
23078;SDS011;11707;50.830;4.364;2023-05-14T04:50:13;89.40;;;51.25;;
23078;SDS011;11707;50.830;4.364;2023-05-14T04:52:39;91.60;;;51.53;;
23078;SDS011;11707;50.830;4.364;2023-05-14T04:55:05;97.13;;;52.63;;
23078;SDS011;11707;50.830;4.364;2023-05-14T04:57:32;100.22;;;53.13;;
23078;SDS011;11707;50.830;4.364;2023-05-14T04:59:58;93.45;;;54.88;;
23078;SDS011;11707;50.830;4.364;2023-05-14T05:02:23;95.97;;;55.72;;
23078;SDS011;11707;50.830;4.364;2023-05-14T05:04:49;93.07;;;52.25;;
23078;SDS011;11707;50.830;4.364;2023-05-14T05:07:15;98.43;;;52.70;;
23078;SDS011;11707;50.830;4.364;2023-05-14T05:09:41;96.60;;;53.75;;
23078;SDS011;11707;50.830;4.364;2023-05-14T05:12:08;100.38;;;53.78;;
23078;SDS011;11707;50.830;4.364;2023-05-14T05:14:33;97.68;;;52.95;;
23078;SDS011;11707;50.830;4.364;2023-05-14T05:17:01;98.22;;;55.03;;
23078;SDS011;11707;50.830;4.364;2023-05-14T05:19:27;96.88;;;54.35;;
23078;SDS011;11707;50.830;4.364;2023-05-14T05:21:55;102.15;;;55.60;;
23078;SDS011;11707;50.830;4.364;2023-05-14T05:24:21;92.93;;;52.47;;
23078;SDS011;11707;50.830;4.364;2023-05-14T05:26:49;97.60;;;55.67;;
23078;SDS011;11707;50.830;4.364;2023-05-14T05:29:16;95.90;;;53.33;;
23078;SDS011;11707;50.830;4.364;2023-05-14T05:31:41;97.50;;;53.17;;
23078;SDS011;11707;50.830;4.364;2023-05-14T05:34:07;98.25;;;53.92;;
23078;SDS011;11707;50.830;4.364;2023-05-14T05:36:33;90.45;;;51.28;;
23078;SDS011;11707;50.830;4.364;2023-05-14T05:38:59;93.57;;;51.60;;
23078;SDS011;11707;50.830;4.364;2023-05-14T05:41:24;92.93;;;51.95;;
23078;SDS011;11707;50.830;4.364;2023-05-14T05:43:50;90.13;;;50.38;;
23078;SDS011;11707;50.830;4.364;2023-05-14T05:46:16;88.70;;;52.08;;
23078;SDS011;11707;50.830;4.364;2023-05-14T05:48:42;88.03;;;47.80;;
23078;SDS011;11707;50.830;4.364;2023-05-14T05:51:08;88.15;;;49.70;;
23078;SDS011;11707;50.830;4.364;2023-05-14T05:53:34;92.28;;;52.97;;
23078;SDS011;11707;50.830;4.364;2023-05-14T05:55:59;96.55;;;50.60;;
23078;SDS011;11707;50.830;4.364;2023-05-14T05:58:25;85.40;;;50.05;;
23078;SDS011;11707;50.830;4.364;2023-05-14T06:00:51;82.82;;;49.10;;
23078;SDS011;11707;50.830;4.364;2023-05-14T06:03:17;101.40;;;50.90;;
23078;SDS011;11707;50.830;4.364;2023-05-14T06:05:43;80.28;;;47.53;;
23078;SDS011;11707;50.830;4.364;2023-05-14T06:08:08;81.25;;;49.15;;
23078;SDS011;11707;50.830;4.364;2023-05-14T06:10:34;86.75;;;50.15;;
23078;SDS011;11707;50.830;4.364;2023-05-14T06:13:01;82.80;;;46.80;;
23078;SDS011;11707;50.830;4.364;2023-05-14T06:15:27;89.68;;;49.47;;
23078;SDS011;11707;50.830;4.364;2023-05-14T06:17:52;96.65;;;51.22;;
23078;SDS011;11707;50.830;4.364;2023-05-14T06:20:18;83.47;;;50.10;;
23078;SDS011;11707;50.830;4.364;2023-05-14T06:22:44;82.57;;;51.70;;
23078;SDS011;11707;50.830;4.364;2023-05-14T06:25:12;82.05;;;49.10;;
23078;SDS011;11707;50.830;4.364;2023-05-14T06:27:37;80.82;;;47.88;;
23078;SDS011;11707;50.830;4.364;2023-05-14T06:30:03;69.70;;;43.45;;
23078;SDS011;11707;50.830;4.364;2023-05-14T06:32:30;81.07;;;45.00;;
23078;SDS011;11707;50.830;4.364;2023-05-14T06:34:56;72.47;;;42.95;;
23078;SDS011;11707;50.830;4.364;2023-05-14T06:37:22;77.10;;;42.97;;
23078;SDS011;11707;50.830;4.364;2023-05-14T06:39:48;67.00;;;41.47;;
23078;SDS011;11707;50.830;4.364;2023-05-14T06:42:16;72.05;;;42.30;;
23078;SDS011;11707;50.830;4.364;2023-05-14T06:44:42;72.47;;;40.97;;
23078;SDS011;11707;50.830;4.364;2023-05-14T06:47:08;71.05;;;39.30;;
23078;SDS011;11707;50.830;4.364;2023-05-14T06:49:34;60.95;;;40.78;;
23078;SDS011;11707;50.830;4.364;2023-05-14T06:52:00;65.60;;;41.88;;
23078;SDS011;11707;50.830;4.364;2023-05-14T06:54:26;65.80;;;41.72;;
23078;SDS011;11707;50.830;4.364;2023-05-14T06:56:52;80.00;;;42.65;;
23078;SDS011;11707;50.830;4.364;2023-05-14T06:59:18;77.50;;;42.90;;
23078;SDS011;11707;50.830;4.364;2023-05-14T07:01:44;78.47;;;42.42;;
23078;SDS011;11707;50.830;4.364;2023-05-14T07:04:09;72.82;;;42.53;;
23078;SDS011;11707;50.830;4.364;2023-05-14T07:06:35;76.82;;;42.97;;
23078;SDS011;11707;50.830;4.364;2023-05-14T07:09:01;74.75;;;44.63;;
23078;SDS011;11707;50.830;4.364;2023-05-14T07:11:27;75.07;;;42.85;;
23078;SDS011;11707;50.830;4.364;2023-05-14T07:13:55;74.32;;;43.53;;
23078;SDS011;11707;50.830;4.364;2023-05-14T07:16:20;80.65;;;45.92;;
23078;SDS011;11707;50.830;4.364;2023-05-14T07:18:49;78.13;;;45.58;;
23078;SDS011;11707;50.830;4.364;2023-05-14T07:21:15;76.22;;;45.13;;
23078;SDS011;11707;50.830;4.364;2023-05-14T07:23:40;74.38;;;43.40;;
23078;SDS011;11707;50.830;4.364;2023-05-14T07:26:06;69.55;;;41.42;;
23078;SDS011;11707;50.830;4.364;2023-05-14T07:28:32;74.15;;;43.05;;
23078;SDS011;11707;50.830;4.364;2023-05-14T07:31:00;69.10;;;43.17;;
23078;SDS011;11707;50.830;4.364;2023-05-14T07:33:28;68.78;;;42.72;;
23078;SDS011;11707;50.830;4.364;2023-05-14T07:35:54;72.55;;;41.63;;
23078;SDS011;11707;50.830;4.364;2023-05-14T07:38:20;69.50;;;41.95;;
23078;SDS011;11707;50.830;4.364;2023-05-14T07:40:48;66.13;;;40.55;;
23078;SDS011;11707;50.830;4.364;2023-05-14T07:43:13;64.05;;;39.95;;
23078;SDS011;11707;50.830;4.364;2023-05-14T07:45:39;74.45;;;41.60;;
23078;SDS011;11707;50.830;4.364;2023-05-14T07:48:05;70.38;;;42.15;;
23078;SDS011;11707;50.830;4.364;2023-05-14T07:50:31;74.78;;;43.22;;
23078;SDS011;11707;50.830;4.364;2023-05-14T07:52:56;67.75;;;41.90;;
23078;SDS011;11707;50.830;4.364;2023-05-14T07:55:22;63.38;;;42.53;;
23078;SDS011;11707;50.830;4.364;2023-05-14T07:57:48;73.18;;;45.53;;
23078;SDS011;11707;50.830;4.364;2023-05-14T08:00:14;73.22;;;41.83;;
23078;SDS011;11707;50.830;4.364;2023-05-14T08:02:40;73.65;;;43.33;;
23078;SDS011;11707;50.830;4.364;2023-05-14T08:05:07;72.32;;;41.75;;
23078;SDS011;11707;50.830;4.364;2023-05-14T08:07:35;74.43;;;42.72;;
23078;SDS011;11707;50.830;4.364;2023-05-14T08:10:01;63.70;;;42.05;;
23078;SDS011;11707;50.830;4.364;2023-05-14T08:12:26;59.28;;;39.10;;
23078;SDS011;11707;50.830;4.364;2023-05-14T08:14:53;62.42;;;38.85;;
23078;SDS011;11707;50.830;4.364;2023-05-14T08:17:20;64.85;;;39.80;;
23078;SDS011;11707;50.830;4.364;2023-05-14T08:19:48;58.42;;;36.95;;
23078;SDS011;11707;50.830;4.364;2023-05-14T08:22:14;61.50;;;38.55;;
23078;SDS011;11707;50.830;4.364;2023-05-14T08:24:40;65.22;;;39.15;;
23078;SDS011;11707;50.830;4.364;2023-05-14T08:27:07;57.05;;;37.63;;
23078;SDS011;11707;50.830;4.364;2023-05-14T08:29:33;55.33;;;37.05;;
23078;SDS011;11707;50.830;4.364;2023-05-14T08:31:59;56.33;;;38.25;;
23078;SDS011;11707;50.830;4.364;2023-05-14T08:34:27;56.65;;;37.20;;
23078;SDS011;11707;50.830;4.364;2023-05-14T08:36:53;60.80;;;38.00;;
23078;SDS011;11707;50.830;4.364;2023-05-14T08:39:19;57.67;;;38.00;;
23078;SDS011;11707;50.830;4.364;2023-05-14T08:41:45;50.15;;;32.53;;
23078;SDS011;11707;50.830;4.364;2023-05-14T08:44:22;47.90;;;32.65;;
23078;SDS011;11707;50.830;4.364;2023-05-14T08:46:53;47.40;;;33.45;;
23078;SDS011;11707;50.830;4.364;2023-05-14T08:49:40;54.95;;;33.88;;
23078;SDS011;11707;50.830;4.364;2023-05-14T08:54:40;38.65;;;27.92;;
23078;SDS011;11707;50.830;4.364;2023-05-14T08:57:08;42.92;;;30.65;;
23078;SDS011;11707;50.830;4.364;2023-05-14T08:59:34;41.45;;;30.42;;
23078;SDS011;11707;50.830;4.364;2023-05-14T09:02:00;43.25;;;31.85;;
23078;SDS011;11707;50.830;4.364;2023-05-14T09:04:29;40.35;;;29.70;;
23078;SDS011;11707;50.830;4.364;2023-05-14T09:06:56;38.08;;;28.55;;
23078;SDS011;11707;50.830;4.364;2023-05-14T09:09:25;42.63;;;30.23;;
23078;SDS011;11707;50.830;4.364;2023-05-14T09:11:55;44.28;;;29.50;;
23078;SDS011;11707;50.830;4.364;2023-05-14T09:14:23;39.13;;;27.83;;
23078;SDS011;11707;50.830;4.364;2023-05-14T09:16:49;42.47;;;29.92;;
23078;SDS011;11707;50.830;4.364;2023-05-14T09:19:16;48.47;;;31.20;;
23078;SDS011;11707;50.830;4.364;2023-05-14T09:21:45;41.08;;;29.25;;
23078;SDS011;11707;50.830;4.364;2023-05-14T09:24:22;42.03;;;29.30;;
23078;SDS011;11707;50.830;4.364;2023-05-14T09:26:49;43.28;;;30.30;;
23078;SDS011;11707;50.830;4.364;2023-05-14T09:29:19;50.35;;;31.00;;
23078;SDS011;11707;50.830;4.364;2023-05-14T09:31:46;43.83;;;31.40;;
23078;SDS011;11707;50.830;4.364;2023-05-14T09:34:28;38.03;;;30.00;;
23078;SDS011;11707;50.830;4.364;2023-05-14T09:36:56;37.65;;;28.55;;
23078;SDS011;11707;50.830;4.364;2023-05-14T09:39:23;40.72;;;28.08;;
23078;SDS011;11707;50.830;4.364;2023-05-14T09:41:49;35.40;;;27.42;;
23078;SDS011;11707;50.830;4.364;2023-05-14T09:44:16;37.63;;;26.88;;
23078;SDS011;11707;50.830;4.364;2023-05-14T09:46:42;36.35;;;26.75;;
23078;SDS011;11707;50.830;4.364;2023-05-14T09:49:12;34.92;;;27.80;;
23078;SDS011;11707;50.830;4.364;2023-05-14T09:51:39;32.53;;;25.23;;
23078;SDS011;11707;50.830;4.364;2023-05-14T09:54:07;34.95;;;25.65;;
23078;SDS011;11707;50.830;4.364;2023-05-14T09:56:33;34.45;;;26.25;;
23078;SDS011;11707;50.830;4.364;2023-05-14T09:59:00;33.88;;;25.10;;
23078;SDS011;11707;50.830;4.364;2023-05-14T10:01:27;34.83;;;24.20;;
23078;SDS011;11707;50.830;4.364;2023-05-14T10:03:54;39.00;;;27.40;;
23078;SDS011;11707;50.830;4.364;2023-05-14T10:06:24;32.92;;;26.70;;
23078;SDS011;11707;50.830;4.364;2023-05-14T10:08:53;37.03;;;25.73;;
23078;SDS011;11707;50.830;4.364;2023-05-14T10:11:21;31.48;;;24.92;;
23078;SDS011;11707;50.830;4.364;2023-05-14T10:16:36;35.65;;;24.40;;
23078;SDS011;11707;50.830;4.364;2023-05-14T10:19:08;32.42;;;26.58;;
23078;SDS011;11707;50.830;4.364;2023-05-14T10:21:36;32.95;;;25.70;;
23078;SDS011;11707;50.830;4.364;2023-05-14T10:24:03;35.55;;;25.88;;
23078;SDS011;11707;50.830;4.364;2023-05-14T10:26:30;31.65;;;25.40;;
23078;SDS011;11707;50.830;4.364;2023-05-14T10:28:57;32.17;;;24.27;;
23078;SDS011;11707;50.830;4.364;2023-05-14T10:34:44;26.48;;;22.88;;
23078;SDS011;11707;50.830;4.364;2023-05-14T10:37:17;26.67;;;22.38;;
23078;SDS011;11707;50.830;4.364;2023-05-14T10:39:50;32.08;;;23.13;;
23078;SDS011;11707;50.830;4.364;2023-05-14T10:42:20;28.85;;;23.50;;
23078;SDS011;11707;50.830;4.364;2023-05-14T10:44:49;29.80;;;23.35;;
23078;SDS011;11707;50.830;4.364;2023-05-14T10:47:17;29.05;;;22.13;;
23078;SDS011;11707;50.830;4.364;2023-05-14T10:49:46;24.90;;;22.10;;
23078;SDS011;11707;50.830;4.364;2023-05-14T10:52:14;27.67;;;21.23;;
23078;SDS011;11707;50.830;4.364;2023-05-14T10:54:57;33.45;;;24.02;;
23078;SDS011;11707;50.830;4.364;2023-05-14T10:57:28;27.10;;;22.95;;
23078;SDS011;11707;50.830;4.364;2023-05-14T10:59:56;30.45;;;24.20;;
23078;SDS011;11707;50.830;4.364;2023-05-14T11:05:01;31.77;;;23.65;;
23078;SDS011;11707;50.830;4.364;2023-05-14T11:07:34;25.10;;;21.13;;
23078;SDS011;11707;50.830;4.364;2023-05-14T11:10:05;29.60;;;23.75;;
23078;SDS011;11707;50.830;4.364;2023-05-14T11:12:32;28.27;;;23.63;;
23078;SDS011;11707;50.830;4.364;2023-05-14T11:14:59;29.90;;;21.90;;
23078;SDS011;11707;50.830;4.364;2023-05-14T11:17:28;26.90;;;20.95;;
23078;SDS011;11707;50.830;4.364;2023-05-14T11:19:55;26.15;;;22.10;;
23078;SDS011;11707;50.830;4.364;2023-05-14T11:22:22;30.10;;;23.30;;
23078;SDS011;11707;50.830;4.364;2023-05-14T11:24:48;35.95;;;23.15;;
23078;SDS011;11707;50.830;4.364;2023-05-14T11:27:14;27.90;;;21.80;;
23078;SDS011;11707;50.830;4.364;2023-05-14T11:29:42;26.00;;;21.05;;
23078;SDS011;11707;50.830;4.364;2023-05-14T11:32:10;32.90;;;20.85;;
23078;SDS011;11707;50.830;4.364;2023-05-14T11:34:36;31.95;;;22.52;;
23078;SDS011;11707;50.830;4.364;2023-05-14T11:37:05;29.02;;;21.17;;
23078;SDS011;11707;50.830;4.364;2023-05-14T11:39:35;27.77;;;20.92;;
23078;SDS011;11707;50.830;4.364;2023-05-14T11:42:04;23.83;;;19.70;;
23078;SDS011;11707;50.830;4.364;2023-05-14T11:44:36;25.42;;;19.50;;
23078;SDS011;11707;50.830;4.364;2023-05-14T11:47:03;22.92;;;18.70;;
23078;SDS011;11707;50.830;4.364;2023-05-14T11:49:29;27.77;;;19.50;;
23078;SDS011;11707;50.830;4.364;2023-05-14T11:52:06;31.77;;;20.35;;
23078;SDS011;11707;50.830;4.364;2023-05-14T11:54:35;23.33;;;19.38;;
23078;SDS011;11707;50.830;4.364;2023-05-14T11:57:03;23.02;;;18.58;;
23078;SDS011;11707;50.830;4.364;2023-05-14T11:59:38;23.48;;;20.15;;
23078;SDS011;11707;50.830;4.364;2023-05-14T12:02:04;27.80;;;18.40;;
23078;SDS011;11707;50.830;4.364;2023-05-14T12:04:37;32.03;;;20.67;;
23078;SDS011;11707;50.830;4.364;2023-05-14T12:07:07;22.55;;;18.60;;
23078;SDS011;11707;50.830;4.364;2023-05-14T12:09:41;23.63;;;19.20;;
23078;SDS011;11707;50.830;4.364;2023-05-14T12:12:13;28.33;;;19.13;;
23078;SDS011;11707;50.830;4.364;2023-05-14T12:14:46;24.50;;;20.40;;
23078;SDS011;11707;50.830;4.364;2023-05-14T12:19:39;30.45;;;20.23;;
23078;SDS011;11707;50.830;4.364;2023-05-14T12:22:07;28.65;;;19.05;;
23078;SDS011;11707;50.830;4.364;2023-05-14T12:24:33;23.90;;;18.50;;
23078;SDS011;11707;50.830;4.364;2023-05-14T12:27:00;29.92;;;20.92;;
23078;SDS011;11707;50.830;4.364;2023-05-14T12:29:26;21.83;;;18.45;;
23078;SDS011;11707;50.830;4.364;2023-05-14T12:31:52;21.52;;;17.15;;
23078;SDS011;11707;50.830;4.364;2023-05-14T12:34:18;21.83;;;17.95;;
23078;SDS011;11707;50.830;4.364;2023-05-14T12:36:43;24.13;;;19.20;;
23078;SDS011;11707;50.830;4.364;2023-05-14T12:39:09;20.85;;;18.50;;
23078;SDS011;11707;50.830;4.364;2023-05-14T12:41:36;20.20;;;16.55;;
23078;SDS011;11707;50.830;4.364;2023-05-14T12:44:03;21.58;;;16.83;;
23078;SDS011;11707;50.830;4.364;2023-05-14T12:46:31;21.00;;;16.73;;
23078;SDS011;11707;50.830;4.364;2023-05-14T12:48:58;24.77;;;18.80;;
23078;SDS011;11707;50.830;4.364;2023-05-14T12:51:24;22.45;;;18.73;;
23078;SDS011;11707;50.830;4.364;2023-05-14T12:53:50;28.83;;;16.88;;
23078;SDS011;11707;50.830;4.364;2023-05-14T12:56:18;20.65;;;17.00;;
23078;SDS011;11707;50.830;4.364;2023-05-14T12:58:43;20.52;;;15.45;;
23078;SDS011;11707;50.830;4.364;2023-05-14T13:01:10;18.58;;;15.93;;
23078;SDS011;11707;50.830;4.364;2023-05-14T13:03:36;19.45;;;15.70;;
23078;SDS011;11707;50.830;4.364;2023-05-14T13:06:02;21.55;;;16.85;;
23078;SDS011;11707;50.830;4.364;2023-05-14T13:08:28;20.25;;;16.08;;
23078;SDS011;11707;50.830;4.364;2023-05-14T13:10:53;18.05;;;15.38;;
23078;SDS011;11707;50.830;4.364;2023-05-14T13:13:20;17.08;;;15.20;;
23078;SDS011;11707;50.830;4.364;2023-05-14T13:15:46;20.58;;;15.88;;
23078;SDS011;11707;50.830;4.364;2023-05-14T13:18:12;18.98;;;16.02;;
23078;SDS011;11707;50.830;4.364;2023-05-14T13:20:39;18.63;;;15.18;;
23078;SDS011;11707;50.830;4.364;2023-05-14T13:23:04;21.02;;;14.98;;
23078;SDS011;11707;50.830;4.364;2023-05-14T13:25:30;17.50;;;14.50;;
23078;SDS011;11707;50.830;4.364;2023-05-14T13:27:56;23.10;;;15.75;;
23078;SDS011;11707;50.830;4.364;2023-05-14T13:30:22;18.00;;;13.82;;
23078;SDS011;11707;50.830;4.364;2023-05-14T13:32:48;20.88;;;15.20;;
23078;SDS011;11707;50.830;4.364;2023-05-14T13:35:15;27.30;;;18.92;;
23078;SDS011;11707;50.830;4.364;2023-05-14T13:37:44;19.65;;;13.63;;
23078;SDS011;11707;50.830;4.364;2023-05-14T13:40:10;16.10;;;12.98;;
23078;SDS011;11707;50.830;4.364;2023-05-14T13:42:36;23.95;;;11.68;;
23078;SDS011;11707;50.830;4.364;2023-05-14T13:45:04;22.75;;;13.60;;
23078;SDS011;11707;50.830;4.364;2023-05-14T13:47:30;19.25;;;13.00;;
23078;SDS011;11707;50.830;4.364;2023-05-14T13:49:56;17.08;;;12.05;;
23078;SDS011;11707;50.830;4.364;2023-05-14T13:52:22;16.30;;;12.15;;
23078;SDS011;11707;50.830;4.364;2023-05-14T13:54:48;16.60;;;12.35;;
23078;SDS011;11707;50.830;4.364;2023-05-14T13:57:14;16.17;;;12.43;;
23078;SDS011;11707;50.830;4.364;2023-05-14T13:59:40;16.45;;;11.90;;
23078;SDS011;11707;50.830;4.364;2023-05-14T14:02:06;19.48;;;13.00;;
23078;SDS011;11707;50.830;4.364;2023-05-14T14:04:32;14.63;;;12.25;;
23078;SDS011;11707;50.830;4.364;2023-05-14T14:07:03;14.88;;;11.10;;
23078;SDS011;11707;50.830;4.364;2023-05-14T14:09:29;12.82;;;10.52;;
23078;SDS011;11707;50.830;4.364;2023-05-14T14:11:59;19.88;;;11.77;;
23078;SDS011;11707;50.830;4.364;2023-05-14T14:14:27;14.07;;;10.85;;
23078;SDS011;11707;50.830;4.364;2023-05-14T14:16:52;16.75;;;11.57;;
23078;SDS011;11707;50.830;4.364;2023-05-14T14:19:18;12.55;;;11.25;;
23078;SDS011;11707;50.830;4.364;2023-05-14T14:21:44;13.05;;;10.57;;
23078;SDS011;11707;50.830;4.364;2023-05-14T14:24:15;15.27;;;12.10;;
23078;SDS011;11707;50.830;4.364;2023-05-14T14:26:40;13.73;;;11.43;;
23078;SDS011;11707;50.830;4.364;2023-05-14T14:29:06;13.82;;;10.45;;
23078;SDS011;11707;50.830;4.364;2023-05-14T14:31:32;21.10;;;12.10;;
23078;SDS011;11707;50.830;4.364;2023-05-14T14:34:02;14.70;;;11.18;;
23078;SDS011;11707;50.830;4.364;2023-05-14T14:36:28;14.23;;;10.77;;
23078;SDS011;11707;50.830;4.364;2023-05-14T14:38:55;16.02;;;9.38;;
23078;SDS011;11707;50.830;4.364;2023-05-14T14:41:21;16.50;;;10.57;;